• Join FlightAware (Why Join?)
  • Login
  • US Flag 
09:36AM EDT


 

Airport Tracker/Info


-or-


 

Live Flight TrackerFlight Track Log ✈ N378TT ✈ 23-Jun-2013 ✈ KORF - KOSU

Flight Track Log - Related Links

Times and Time Zones

All times are in EDT time to prevent confusion due to time zone crossing. See the N378TT flight status page for this flight to view local times or setup timezone preferences in your user account.

Time Position Orientation Groundspeed Altitude Reporting Facility
EDT Latitude Longitude Course Direction KTS MPH feet Rate Location/Type
03:10PM 36.8847 -76.2150 211° Southwest 73 84 400  Level Washington Center
03:11PM 36.8742 -76.2228 211° Southwest 83 96 800 600 Climbing Washington Center
03:12PM 36.8572 -76.2461 228° Southwest 93 107 1,400 720 Climbing Washington Center
03:13PM 36.8592 -76.2772 274° West 96 110 2,300 780 Climbing Washington Center
03:14PM 36.8592 -76.3083 270° West 93 107 3,000 660 Climbing Washington Center
03:15PM 36.8589 -76.3394 269° West 92 106 3,700 660 Climbing Washington Center
03:16PM 36.8608 -76.3733 274° West 90 104 4,400 660 Climbing Washington Center
03:17PM 36.8628 -76.4019 275° West 87 100 5,000 540 Climbing Washington Center
03:18PM 36.8625 -76.4331 269° West 92 106 5,500 540 Climbing Washington Center
03:19PM 36.8789 -76.4617 306° West 107 123 6,100 540 Climbing Washington Center
03:20PM 36.8975 -76.4878 312° West 105 121 6,600 480 Climbing Washington Center
03:21PM 36.9161 -76.5142 311° West 107 123 7,100 420 Climbing Washington Center
03:22PM 36.9367 -76.5431 312° West 105 121 7,500 420 Climbing Washington Center
03:23PM 36.9572 -76.5744 309° West 107 123 8,000 120 Climbing Washington Center
03:25PM 37.0167 -76.6500 315° West 147 169 8,000  Level Potomac TRACON
03:26PM 37.0333 -76.6833 302° West 143 165 8,000  Level Potomac TRACON
03:27PM 37.0667 -76.7333 310° West 148 170 8,000  Level Potomac TRACON
03:28PM 37.1000 -76.7667 321° Northwest 147 169 8,000  Level Potomac TRACON
03:29PM 37.1167 -76.8000 302° West 145 167 8,000  Level Potomac TRACON
03:30PM 37.1500 -76.8500 310° West 142 163 8,000  Level Potomac TRACON
03:31PM 37.1667 -76.8833 302° West 143 165 8,000  Level Potomac TRACON
03:32PM 37.1833 -76.9333 293° West 144 166 8,000  Level Potomac TRACON
03:33PM 37.2000 -76.9667 302° West 150 173 8,000  Level Potomac TRACON
03:34PM 37.2333 -77.0167 310° West 152 175 8,000  Level Potomac TRACON
03:35PM 37.2500 -77.0500 302° West 145 167 8,000  Level Potomac TRACON
03:36PM 37.2667 -77.1000 293° West 150 173 8,000  Level Potomac TRACON
03:37PM 37.3000 -77.1333 322° Northwest 143 165 8,000  Level Potomac TRACON
03:38PM 37.3167 -77.1833 293° West 143 165 8,000  Level Potomac TRACON
03:39PM 37.3333 -77.2333 293° West 144 166 8,000  Level Potomac TRACON
03:40PM 37.3667 -77.2667 322° Northwest 145 167 8,000  Level Potomac TRACON
03:41PM 37.3833 -77.3167 293° West 145 167 8,000  Level Potomac TRACON
03:42PM 37.4000 -77.3500 302° West 145 167 8,000  Level Potomac TRACON
03:43PM 37.4167 -77.4000 293° West 148 170 8,000  Level Potomac TRACON
03:44PM 37.4500 -77.4333 322° Northwest 147 169 8,000  Level Potomac TRACON
03:45PM 37.4667 -77.4667 302° West 142 163 8,000  Level Potomac TRACON
03:46PM 37.4833 -77.5167 293° West 141 162 8,000  Level Potomac TRACON
03:47PM 37.5000 -77.5500 302° West 142 163 8,000  Level Potomac TRACON
03:48PM 37.5333 -77.6000 310° West 140 161 8,000  Level Potomac TRACON
03:49PM 37.5500 -77.6333 302° West 139 160 8,000  Level Potomac TRACON
03:50PM 37.5667 -77.6833 293° West 139 160 8,000  Level Potomac TRACON
03:51PM 37.5833 -77.7167 302° West 143 165 8,000  Level Potomac TRACON
03:52PM 37.6000 -77.7667 293° West 142 163 8,000  Level Potomac TRACON
03:53PM 37.6333 -77.8000 322° Northwest 132 152 8,000  Level Potomac TRACON
03:54PM 37.6500 -77.8500 293° West 143 165 8,000  Level Potomac TRACON
03:55PM 37.6667 -77.8833 302° West 139 160 8,000  Level Potomac TRACON
03:56PM 37.6833 -77.9167 302° West 141 162 8,000  Level Potomac TRACON
03:57PM 37.7167 -77.9667 310° West 149 171 8,000  Level Potomac TRACON
03:58PM 37.7333 -78.0000 302° West 144 166 8,000  Level Potomac TRACON
03:59PM 37.7500 -78.0500 293° West 149 171 8,000  Level Potomac TRACON
04:00PM 37.7667 -78.1000 293° West 145 167 8,000  Level Potomac TRACON
04:01PM 37.8000 -78.1333 322° Northwest 138 159 8,000  Level Potomac TRACON
04:02PM 37.8167 -78.1833 293° West 144 166 8,000  Level Potomac TRACON
04:03PM 37.8333 -78.2167 302° West 145 167 8,000  Level Potomac TRACON
04:04PM 37.8500 -78.2667 293° West 142 163 8,000  Level Potomac TRACON
04:05PM 37.8833 -78.3000 322° Northwest 143 165 8,000  Level Potomac TRACON
04:06PM 37.9000 -78.3333 302° West 136 157 8,000  Level Potomac TRACON
04:07PM 37.9167 -78.3833 293° West 149 171 8,000  Level Potomac TRACON
04:08PM 37.9333 -78.4167 302° West 139 160 8,000  Level Potomac TRACON
04:09PM 37.9667 -78.4667 310° West 138 159 8,000  Level Potomac TRACON
04:10PM 37.9833 -78.5000 302° West 139 160 8,000  Level Potomac TRACON
04:11PM 38.0000 -78.5500 293° West 140 161 8,000  Level Potomac TRACON
04:12PM 38.0167 -78.5833 302° West 139 160 8,000  Level Potomac TRACON
04:13PM 38.0500 -78.6333 310° West 146 168 8,000  Level Potomac TRACON
04:14PM 38.0667 -78.6667 302° West 140 161 8,000  Level Potomac TRACON
04:15PM 38.0833 -78.7167 293° West 143 165 8,000  Level Potomac TRACON
04:16PM 38.1000 -78.7667 293° West 142 163 8,000  Level Potomac TRACON
04:17PM 38.1167 -78.8000 302° West 141 162 8,000  Level Potomac TRACON
04:18PM 38.1500 -78.8333 322° Northwest 140 161 8,000  Level Potomac TRACON
04:19PM 38.1667 -78.8833 293° West 141 162 8,000  Level Potomac TRACON
04:21PM 38.1953 -78.9444 301° West 151 174 8,000  Level Washington Center
04:22PM 38.2131 -78.9822 301° West 145 167 8,000  Level Washington Center
04:23PM 38.2347 -79.0231 304° West 145 167 8,000  Level Washington Center
04:24PM 38.2542 -79.0689 298° West 145 167 8,000  Level Washington Center
04:25PM 38.2781 -79.1122 305° West 145 167 8,000  Level Washington Center
04:26PM 38.2975 -79.1556 300° West 145 167 8,000  Level Washington Center
04:27PM 38.3192 -79.1989 303° West 145 167 8,000  Level Washington Center
04:28PM 38.3389 -79.2394 302° West 145 167 8,000  Level Washington Center
04:29PM 38.3564 -79.2775 300° West 145 167 8,000  Level Washington Center
04:30PM 38.3761 -79.3208 300° West 145 167 8,000  Level Washington Center
04:31PM 38.3956 -79.3642 300° West 145 167 8,000  Level Washington Center
04:32PM 38.4211 -79.4106 305° West 145 167 8,000  Level Washington Center
04:33PM 38.4406 -79.4539 300° West 145 167 8,000  Level Washington Center
04:34PM 38.4600 -79.4975 300° West 145 167 8,000  Level Washington Center
04:35PM 38.4817 -79.5411 302° West 145 167 8,000 60 Level Washington Center
04:36PM 38.5011 -79.5844 300° West 145 167 8,200  Climbing Washington Center
04:37PM 38.5225 -79.6281 302° West 150 173 8,000 -120 Descending Washington Center
04:38PM 38.5419 -79.6717 300° West 150 173 8,000  Level Washington Center
04:39PM 38.5808 -79.7508 302° West 144 166 8,000  Level Indianapolis Center
04:40PM 38.6017 -79.7950 301° West 144 166 8,000  Level Indianapolis Center
04:41PM 38.6242 -79.8425 301° West 152 175 8,000  Level Indianapolis Center
04:42PM 38.6464 -79.8886 302° West 153 176 8,000  Level Indianapolis Center
04:43PM 38.6678 -79.9342 301° West 151 174 8,000  Level Indianapolis Center
04:45PM 38.6886 -79.9803 300° West 150 173 8,000  Level Indianapolis Center
04:46PM 38.7156 -80.0344 303° West 151 174 8,000  Level Indianapolis Center
04:47PM 38.7369 -80.0803 301° West 151 174 8,000  Level Indianapolis Center
04:48PM 38.7575 -80.1247 301° West 146 168 8,000  Level Indianapolis Center
04:49PM 38.7783 -80.1697 301° West 147 169 8,000  Level Indianapolis Center
04:50PM 38.8003 -80.2150 302° West 149 171 8,000  Level Indianapolis Center
04:51PM 38.8214 -80.2606 301° West 150 173 8,000  Level Indianapolis Center
04:52PM 38.8478 -80.3161 301° West 153 176 8,000  Level Indianapolis Center
04:53PM 38.8697 -80.3631 301° West 153 176 8,000  Level Indianapolis Center
04:54PM 38.8897 -80.4094 299° West 150 173 8,000  Level Indianapolis Center
04:55PM 38.9119 -80.4536 303° West 148 170 8,000  Level Indianapolis Center
04:56PM 38.9336 -80.5011 300° West 152 175 8,000  Level Indianapolis Center
04:57PM 38.9553 -80.5475 301° West 151 174 8,000  Level Indianapolis Center
04:58PM 38.9761 -80.5936 300° West 150 173 8,000  Level Indianapolis Center
04:59PM 39.0014 -80.6469 301° West 148 170 8,000  Level Indianapolis Center
05:00PM 39.0233 -80.6950 300° West 153 176 8,000  Level Indianapolis Center
05:01PM 39.0453 -80.7417 301° West 152 175 8,000  Level Indianapolis Center
05:02PM 39.0672 -80.7878 302° West 152 175 8,000  Level Indianapolis Center
05:03PM 39.0892 -80.8350 301° West 152 175 8,000  Level Indianapolis Center
05:04PM 39.1111 -80.8825 301° West 154 177 8,000  Level Indianapolis Center
05:05PM 39.1367 -80.9386 300° West 153 176 8,000  Level Indianapolis Center
05:06PM 39.1567 -80.9844 299° West 151 174 8,000  Level Indianapolis Center
05:07PM 39.1775 -81.0297 301° West 149 171 8,000  Level Indianapolis Center
05:08PM 39.1981 -81.0747 301° West 148 170 8,000  Level Indianapolis Center
05:09PM 39.2183 -81.1181 301° West 145 167 8,000  Level Indianapolis Center
05:10PM 39.2397 -81.1642 301° West 146 168 8,000  Level Indianapolis Center
05:11PM 39.2597 -81.2108 299° West 148 170 8,000  Level Indianapolis Center
05:12PM 39.2856 -81.2658 301° West 149 171 8,000  Level Indianapolis Center
05:13PM 39.3058 -81.3111 300° West 148 170 8,000  Level Indianapolis Center
05:14PM 39.3261 -81.3581 299° West 149 171 8,000  Level Indianapolis Center
05:15PM 39.3475 -81.4033 301° West 149 171 8,000  Level Indianapolis Center
05:16PM 39.3628 -81.4517 292° West 146 168 8,000  Level Indianapolis Center
05:18PM 39.3756 -81.5008 289° West 145 167 8,000  Level Indianapolis Center
05:19PM 39.3897 -81.5506 290° West 147 169 8,000  Level Indianapolis Center
05:20PM 39.4050 -81.6094 289° West 145 167 8,000  Level Indianapolis Center
05:21PM 39.4239 -81.6525 300° West 141 162 8,000  Level Indianapolis Center
05:22PM 39.4433 -81.6972 299° West 143 165 8,000  Level Indianapolis Center
05:23PM 39.4644 -81.7408 302° West 143 165 8,000  Level Indianapolis Center
05:24PM 39.4853 -81.7842 302° West 142 163 8,000  Level Indianapolis Center
05:25PM 39.5061 -81.8294 301° West 145 167 8,000  Level Indianapolis Center
05:26PM 39.5264 -81.8744 300° West 145 167 8,000  Level Indianapolis Center
05:27PM 39.5519 -81.9258 303° West 142 163 8,000  Level Indianapolis Center
05:28PM 39.5728 -81.9711 301° West 147 169 8,000  Level Indianapolis Center
05:29PM 39.5939 -82.0144 302° West 143 165 8,000  Level Indianapolis Center
05:30PM 39.6150 -82.0594 301° West 144 166 8,100  Climbing Indianapolis Center
05:31PM 39.6361 -82.1039 302° West 145 167 8,100 -120 Level Indianapolis Center
05:32PM 39.6589 -82.1539 301° West 147 169 7,900 -120 Descending Indianapolis Center
05:33PM 39.6797 -82.2006 300° West 148 170 7,900  Level Indianapolis Center
05:34PM 39.7039 -82.2533 301° West 147 169 8,000  Climbing Indianapolis Center
05:35PM 39.7222 -82.2919 302° West 149 171 7,900  Descending Indianapolis Center
05:36PM 39.7425 -82.3386 299° West 144 166 8,000  Climbing Indianapolis Center
05:37PM 39.7675 -82.3892 303° West 145 167 7,900  Descending Indianapolis Center
05:38PM 39.7811 -82.4239 297° West 144 166 8,000  Climbing Indianapolis Center
05:39PM 39.8033 -82.4697 302° West 147 169 8,000 -360 Level Indianapolis Center
05:40PM 39.8233 -82.5153 300° West 159 183 7,400 -720 Descending Indianapolis Center
05:41PM 39.8600 -82.5653 314° West 178 205 6,600 -780 Descending Indianapolis Center
05:42PM 39.8986 -82.6158 315° West 172 198 5,800 -720 Descending Indianapolis Center
05:43PM 39.9294 -82.6572 314° West 176 203 5,200 -780 Descending Indianapolis Center
05:44PM 39.9739 -82.7119 317° Northwest 178 205 4,100 -840 Descending Indianapolis Center
05:45PM 40.0103 -82.7614 314° West 174 200 3,300 -600 Descending Indianapolis Center
05:46PM 40.0414 -82.8003 316° Northwest 158 182 3,000 -180 Descending Indianapolis Center
05:47PM 40.0678 -82.8414 310° West 145 167 3,000  Level Indianapolis Center
05:48PM 40.0839 -82.8814 298° West 142 163 3,000 -120 Level Indianapolis Center
05:49PM 40.0828 -82.9303 268° West 138 159 2,800 -540 Descending Indianapolis Center
05:50PM 40.0811 -82.9872 268° West 163 188 2,000 -720 Descending Indianapolis Center
05:51PM 40.0778 -83.0333 265° West 100 115 1,400 -420 Descending Indianapolis Center
05:53PM 40.0764 -83.0694 267° West 106 122 1,100 -240 Descending Indianapolis Center